Data for 06/08/2014

Time Sea-Level Adjusted Pressure Absolute Pressure Temperature Relative Humidity Dew Point   
(mb) (inHg) (mb) (inHg) (C) (F) (%) (C) (F)
00:05 1020 30.12 850 25.1 11.2 52.1 55 2.6 36.6
00:10 1020 30.12 850 25.1 11.2 52.1 55 2.6 36.6
00:15 1020 30.12 850 25.1 11.1 52 54 2.2 36
00:20 1020 30.12 850 25.1 11.2 52.2 53 2.1 35.8
00:25 1020 30.12 850 25.1 11.3 52.3 52 1.9 35.3
00:30 1020 30.12 850 25.1 11.3 52.3 52 1.9 35.5
00:35 1020 30.12 850 25.1 11.1 52 55 2.4 36.4
00:40 1020 30.12 850 25.1 10.6 51.1 57 2.5 36.4
00:45 1020 30.12 850 25.1 10.4 50.7 56 2.1 35.9
00:50 1020 30.12 850 25.1 10.3 50.6 57 2.1 35.8
00:55 1020 30.12 850 25.1 10.3 50.5 56 1.8 35.3
01:00 1020 30.12 850 25.1 10.3 50.5 55 1.7 35
01:05 1020 30.12 850 25.1 10.3 50.5 55 1.6 34.9
01:10 1020 30.12 850 25.1 10.3 50.5 54 1.5 34.6
01:15 1020 30.12 850 25.1 10.3 50.5 53 1.3 34.3
01:20 1020 30.12 850 25.1 10.3 50.5 53 1.1 34
01:25 1020 30.12 850 25.1 10.2 50.4 53 1 33.9
01:30 1020 30.12 850 25.1 10.2 50.4 53 1 33.9
01:35 1020 30.12 850 25.1 10.1 50.2 52 0.8 33.5
01:40 1020 30.12 850 25.1 10.1 50.2 52 0.7 33.3
01:45 1020 30.12 850 25.1 10.1 50.3 51 0.4 32.7
01:50 1020 30.12 850 25.1 10.2 50.3 50 0.4 32.6
01:55 1020 30.12 850 25.1 10.1 50.2 50 0.3 32.5
02:00 1020 30.12 850 25.1 10.1 50.2 49 -0 32
02:05 1020 30.12 850 25.1 10.1 50.3 49 0.1 32.2
02:10 1020 30.12 850 25.1 10.1 50.1 50 0.2 32.4
02:15 1020 30.12 850 25.1 10.1 50.2 48 -0.2 31.6
02:20 1020 30.12 850 25.1 10.2 50.4 48 -0.4 31.3
02:25 1020 30.12 850 25.1 10.2 50.4 47 -0.5 31.2
02:30 1020 30.12 850 25.1 10.1 50.2 48 -0.4 31.3
02:35 1020 30.12 850 25.1 10 49.9 47 -0.7 30.8
02:40 1020 30.12 850 25.1 10.1 50.1 47 -0.8 30.6
02:45 1021 30.15 850 25.1 10.1 50.1 47 -0.7 30.7
02:50 1021 30.15 850 25.1 9.9 49.8 48 -0.7 30.8
02:55 1021 30.15 850 25.1 9.6 49.2 49 -0.6 30.9
03:00 1021 30.15 850 25.1 9.2 48.6 50 -0.5 31
03:05 1021 30.15 850 25.1 8.9 48 52 -0.4 31.3
03:10 1021 30.15 850 25.1 8.7 47.6 53 -0.3 31.5
03:15 1021 30.15 850 25.1 8.3 47 55 -0.2 31.7
03:20 1021 30.15 850 25.1 8.2 46.7 54 -0.5 31
03:25 1021 30.15 850 25.1 8.2 46.8 54 -0.4 31.2
03:30 1021 30.15 850 25.1 8.1 46.6 57 0 32.1
03:35 1021 30.15 850 25.1 7.9 46.3 58 0.1 32.3
03:40 1021 30.15 850 25.1 7.9 46.3 57 0 32.1
03:45 1021 30.15 850 25.1 7.9 46.3 56 -0.3 31.4
03:50 1021 30.15 850 25.1 7.9 46.3 56 -0.3 31.5
03:55 1021 30.15 850 25.1 7.9 46.2 55 -0.6 30.9
04:00 1021 30.15 850 25.1 8 46.3 53 -0.9 30.3
04:05 1021 30.15 850 25.1 7.9 46.2 54 -0.9 30.4
04:10 1021 30.15 850 25.1 7.7 45.9 54 -1 30.1
04:15 1021 30.15 850 25.1 7.6 45.7 54 -1.1 30.1
04:20 1021 30.15 850 25.1 7.5 45.5 54 -1.1 30
04:25 1021 30.15 850 25.1 7.4 45.3 55 -1.1 30
04:30 1021 30.15 850 25.1 7.1 44.8 57 -0.9 30.4
04:35 1021 30.15 850 25.1 6.9 44.3 57 -0.9 30.3
04:40 1021 30.15 850 25.1 6.6 43.9 59 -0.8 30.5
04:45 1021 30.15 850 25.1 6.4 43.5 59 -1 30.3
04:50 1021 30.15 851 25.13 6.4 43.6 59 -0.9 30.3
04:55 1021 30.15 851 25.13 6.3 43.4 59 -1 30.3
05:00 1021 30.15 851 25.13 6.3 43.4 59 -1.1 30.1
05:05 1021 30.15 851 25.13 6.3 43.4 59 -1.1 30
05:10 1021 30.15 851 25.13 6.5 43.7 57 -1.4 29.4
05:15 1021 30.15 851 25.13 6.8 44.2 55 -1.6 29.2
05:20 1022 30.18 851 25.13 7 44.5 55 -1.4 29.4
05:25 1022 30.18 851 25.13 6.9 44.5 56 -1.3 29.6
05:30 1022 30.18 851 25.13 7.1 44.8 54 -1.6 29.1
05:35 1022 30.18 851 25.13 7.2 45 54 -1.4 29.5
05:40 1022 30.18 851 25.13 7.2 45 56 -1 30.3
05:45 1022 30.18 851 25.13 7.2 44.9 57 -0.8 30.5
05:50 1022 30.18 851 25.13 7.2 45 57 -0.7 30.8
05:55 1022 30.18 851 25.13 7.2 44.9 56 -0.9 30.4
06:00 1022 30.18 851 25.13 7.2 44.9 54 -1.4 29.5
06:05 1022 30.18 851 25.13 7.4 45.2 56 -0.9 30.4
06:10 1022 30.18 851 25.13 7.3 45.1 55 -1.1 30.1
06:15 1022 30.18 851 25.13 7.3 45.1 56 -0.9 30.4
06:20 1022 30.18 851 25.13 7.4 45.2 57 -0.7 30.8
06:25 1022 30.18 851 25.13 7.8 46.1 55 -0.7 30.7
06:30 1022 30.18 851 25.13 8.2 46.7 57 0.2 32.4
06:35 1022 30.18 851 25.13 8.2 46.7 55 -0.4 31.3
06:40 1022 30.18 851 25.13 8.1 46.6 56 -0.1 31.8
06:45 1022 30.18 851 25.13 8.3 46.9 57 0.3 32.6
06:50 1022 30.18 851 25.13 8.3 47 56 0.2 32.3
06:55 1022 30.18 851 25.13 8.5 47.3 58 0.8 33.4
07:00 1022 30.18 851 25.13 8.8 47.8 58 0.9 33.5
07:05 1022 30.18 852 25.16 9 48.3 57 1 33.7
07:10 1022 30.18 852 25.16 9.4 48.8 56 0.9 33.7
07:15 1022 30.18 852 25.16 9.8 49.6 53 0.7 33.3
07:20 1023 30.21 852 25.16 9.9 49.7 55 1.2 34.1
07:25 1022 30.18 852 25.16 10 50.1 55 1.5 34.6
07:30 1022 30.18 852 25.16 10.2 50.3 55 1.6 34.9
07:35 1022 30.18 852 25.16 10.4 50.8 52 1.1 33.9
07:40 1022 30.18 852 25.16 10.8 51.5 51 1.1 34
07:45 1023 30.21 852 25.16 11.1 52 47 0.4 32.7
07:50 1023 30.21 852 25.16 11.7 53.1 48 1.2 34.1
07:55 1023 30.21 852 25.16 12 53.5 44 0.1 32.2
08:00 1023 30.21 852 25.16 11.5 52.6 46 0.2 32.4
08:05 1023 30.21 852 25.16 11.8 53.3 44 0.1 32.2
08:10 1023 30.21 852 25.16 12.1 53.7 44 0.2 32.3
08:15 1023 30.21 852 25.16 12.3 54.2 42 -0.3 31.5
08:20 1023 30.21 852 25.16 12.2 53.9 42 -0.2 31.7
08:25 1023 30.21 852 25.16 12.5 54.5 40 -0.5 31
08:30 1023 30.21 852 25.16 12.6 54.6 41 -0.3 31.4
08:35 1023 30.21 852 25.16 12.8 55 40 -0.4 31.3
08:40 1023 30.21 852 25.16 12.6 54.7 42 0.1 32.2
08:45 1023 30.21 852 25.16 12.4 54.2 42 -0.2 31.6
08:50 1023 30.21 852 25.16 12.5 54.5 41 -0.5 31.2
08:55 1023 30.21 852 25.16 12.9 55.3 40 -0.2 31.6
09:00 1023 30.21 852 25.16 13.3 55.9 40 -0 32
09:05 1023 30.21 852 25.16 13.7 56.6 38 -0.2 31.7
09:10 1023 30.21 852 25.16 13.6 56.5 39 0.1 32.2
09:15 1023 30.21 852 25.16 14.5 58.2 37 0.2 32.3
09:20 1023 30.21 852 25.16 14.1 57.3 38 -0 32
09:25 1023 30.21 852 25.16 14.4 57.9 35 -0.8 30.6
09:30 1023 30.21 852 25.16 14.7 58.4 35 -0.4 31.3
09:35 1023 30.21 852 25.16 14.9 58.7 35 -0.2 31.7
09:40 1023 30.21 852 25.16 14.6 58.2 37 0 32.1
09:45 1023 30.21 852 25.16 15 59 34 -0.5 31
09:50 1023 30.21 852 25.16 16 60.8 34 0.1 32.2
09:55 1023 30.21 852 25.16 16 60.7 32 -0.7 30.7
10:00 1023 30.21 852 25.16 16.5 61.6 34 0.6 33.1
10:05 1023 30.21 852 25.16 16.3 61.3 30 -1.1 30
10:10 1023 30.21 852 25.16 15.8 60.5 30 -1.4 29.5
10:15 1023 30.21 852 25.16 16.5 61.8 28 -2.1 28.3
10:20 1023 30.21 852 25.16 16.4 61.6 30 -1.1 30.1
10:25 1023 30.21 852 25.16 15.8 60.4 30 -1.7 28.9
10:30 1023 30.21 852 25.16 15.5 60 30 -1.8 28.8
10:35 1023 30.21 852 25.16 15.5 60 29 -2.1 28.2
10:40 1023 30.21 852 25.16 16 60.8 29 -2.1 28.2
10:45 1023 30.21 852 25.16 17 62.7 28 -1.7 28.9
10:50 1022 30.18 852 25.16 17.9 64.3 26 -1.5 29.3
10:55 1022 30.18 852 25.16 17.7 63.8 27 -1.6 29.2
11:00 1022 30.18 852 25.16 17.5 63.5 27 -1.6 29.2
11:05 1022 30.18 852 25.16 17.8 64 26 -1.7 28.9
11:10 1022 30.18 852 25.16 18 64.3 26 -1.6 29.1
11:15 1022 30.18 852 25.16 18.1 64.6 26 -1.8 28.8
11:20 1022 30.18 852 25.16 18.4 65.1 26 -1.2 29.8
11:25 1022 30.18 852 25.16 18 64.4 26 -1.9 28.6
11:30 1022 30.18 852 25.16 18 64.5 26 -1.4 29.5
11:35 1022 30.18 851 25.13 17.6 63.8 28 -0.9 30.4
11:40 1022 30.18 851 25.13 17 62.6 26 -2.3 27.9
11:45 1022 30.18 851 25.13 18.3 64.9 26 -1.4 29.4
11:50 1022 30.18 851 25.13 18.4 65.1 27 -1 30.2
11:55 1022 30.18 851 25.13 18.8 65.9 24 -2 28.3
12:00 1022 30.18 851 25.13 19 66.1 25 -1.5 29.3
12:05 1022 30.18 851 25.13 19.3 66.7 24 -1.8 28.7
12:10 1022 30.18 851 25.13 18.8 65.8 25 -1.3 29.7
12:15 1022 30.18 851 25.13 19.1 66.5 24 -1.8 28.8
12:20 1022 30.18 851 25.13 19.2 66.5 23 -2.5 27.5
12:25 1022 30.18 851 25.13 19.2 66.5 23 -2.2 28
12:30 1022 30.18 851 25.13 18.9 66 24 -2.2 28
12:35 1022 30.18 851 25.13 19.5 67 22 -2.5 27.5
12:40 1022 30.18 851 25.13 19.5 67.1 24 -1.3 29.7
12:45 1022 30.18 851 25.13 18.5 65.2 26 -1.5 29.3
12:50 1022 30.18 851 25.13 18.7 65.6 27 -0.8 30.6
12:55 1022 30.18 851 25.13 19.3 66.7 24 -1.7 28.9
13:00 1022 30.18 851 25.13 19.2 66.5 23 -2.3 27.9
13:05 1022 30.18 851 25.13 18.5 65.3 23 -2.9 26.7
13:10 1022 30.18 851 25.13 19.6 67.2 21 -2.9 26.7
13:15 1022 30.18 851 25.13 19.1 66.4 24 -1.9 28.6
13:20 1022 30.18 851 25.13 19 66.3 23 -2.6 27.3
13:25 1022 30.18 851 25.13 19.2 66.5 22 -2.7 27.1
13:30 1022 30.18 851 25.13 19.4 67 22 -2.5 27.5
13:35 1022 30.18 851 25.13 19 66.2 23 -2.2 28
13:40 1022 30.18 851 25.13 19.8 67.7 21 -2.7 27.1
13:45 1022 30.18 851 25.13 20 68 22 -2.1 28.1
13:50 1022 30.18 851 25.13 20.2 68.3 21 -2.4 27.6
13:55 1022 30.18 851 25.13 20 68 22 -2.4 27.7
14:00 1022 30.18 851 25.13 19.7 67.5 22 -2.5 27.5
14:05 1022 30.18 851 25.13 19.6 67.3 24 -1.5 29.2
14:10 1022 30.18 851 25.13 20 68 22 -2.1 28.2
14:15 1022 30.18 851 25.13 20.8 69.4 23 -1 30.1
14:20 1022 30.18 851 25.13 21.2 70.1 22 -1.4 29.5
14:25 1022 30.18 851 25.13 20.9 69.7 23 -1.1 30.1
14:30 1022 30.18 851 25.13 20.8 69.4 23 -1.2 29.8
14:35 1022 30.18 851 25.13 21.3 70.3 22 -1.3 29.6
14:40 1022 30.18 851 25.13 20.7 69.2 21 -2.1 28.3
14:45 1021 30.15 851 25.13 20.2 68.4 22 -1.9 28.6
14:50 1021 30.15 851 25.13 20.3 68.5 22 -2 28.5
14:55 1021 30.15 851 25.13 20.3 68.6 23 -1.4 29.6
15:00 1021 30.15 851 25.13 20.4 68.7 21 -2.3 27.8
15:05 1021 30.15 851 25.13 20.7 69.2 21 -2.1 28.2
15:10 1021 30.15 851 25.13 20.9 69.6 22 -1.6 29.1
15:15 1021 30.15 850 25.1 21.4 70.6 20 -2 28.3
15:20 1021 30.15 850 25.1 20.7 69.3 22 -1.8 28.8
15:25 1021 30.15 850 25.1 19.4 66.8 23 -2.2 28.1
15:30 1021 30.15 850 25.1 19.9 67.8 23 -1.9 28.6
15:35 1021 30.15 850 25.1 20.2 68.4 22 -1.8 28.7
15:40 1021 30.15 850 25.1 20.1 68.2 21 -2.8 27
15:45 1021 30.15 850 25.1 20.6 69 21 -2.2 28
15:50 1021 30.15 850 25.1 20.8 69.4 20 -3 26.6
15:55 1021 30.15 850 25.1 20.9 69.7 21 -2.2 28
16:00 1021 30.15 850 25.1 20.4 68.6 21 -2.5 27.5
16:05 1021 30.15 850 25.1 20.3 68.5 21 -2.4 27.6
16:10 1021 30.15 850 25.1 20.3 68.5 20 -3 26.6
16:15 1021 30.15 850 25.1 21 69.7 19 -3.1 26.4
16:20 1021 30.15 850 25.1 20.9 69.6 20 -2.9 26.8
16:25 1021 30.15 850 25.1 21.2 70.1 20 -2.3 27.8
16:30 1021 30.15 850 25.1 21.1 69.9 20 -2.3 27.8
16:35 1021 30.15 850 25.1 21.1 69.9 20 -2.8 27
16:40 1021 30.15 850 25.1 21.1 70 21 -1.6 29.2
16:45 1021 30.15 850 25.1 20.9 69.7 21 -2.2 28
16:50 1021 30.15 850 25.1 20.1 68.2 23 -1.2 29.8
16:55 1021 30.15 850 25.1 19.5 67.1 23 -2.2 28
17:00 1021 30.15 850 25.1 19.3 66.8 24 -1.8 28.7
17:05 1021 30.15 850 25.1 19.2 66.6 23 -2.2 28.1
17:10 1021 30.15 850 25.1 19.3 66.7 22 -2.6 27.4
17:15 1021 30.15 850 25.1 19.1 66.4 24 -2 28.4
17:20 1021 30.15 850 25.1 19.6 67.3 22 -2.6 27.3
17:25 1020 30.12 850 25.1 19.7 67.4 22 -2.2 28
17:30 1020 30.12 850 25.1 20.4 68.7 21 -2.7 27.1
17:35 1020 30.12 850 25.1 20.6 69.1 20 -2.6 27.3
17:40 1020 30.12 850 25.1 20.6 69.1 21 -2 28.3
17:45 1020 30.12 850 25.1 20.5 69 21 -2.5 27.5
17:50 1020 30.12 850 25.1 20.2 68.3 23 -1.7 28.9
17:55 1020 30.12 850 25.1 20.5 68.8 22 -2 28.4
18:00 1020 30.12 849 25.07 20.8 69.4 22 -1.7 29
18:05 1020 30.12 849 25.07 20.6 69 22 -1.8 28.8
18:10 1020 30.12 849 25.07 19.6 67.3 22 -2.7 27.1
18:15 1020 30.12 849 25.07 20.1 68.1 21 -2.7 27.2
18:20 1020 30.12 849 25.07 20.5 68.9 20 -2.8 27
18:25 1020 30.12 849 25.07 20.1 68.2 21 -2.7 27.2
18:30 1020 30.12 849 25.07 19.4 67 23 -2.3 27.9
18:35 1020 30.12 849 25.07 18.8 65.9 23 -2.6 27.4
18:40 1020 30.12 849 25.07 18.9 66 23 -2.5 27.6
18:45 1020 30.12 849 25.07 18.8 65.8 23 -2.8 27
18:50 1020 30.12 849 25.07 18.6 65.5 25 -1.8 28.8
18:55 1020 30.12 849 25.07 18.5 65.3 24 -2.4 27.7
19:00 1020 30.12 849 25.07 18.6 65.5 24 -2.5 27.6
19:05 1020 30.12 849 25.07 18.7 65.7 23 -2.6 27.3
19:10 1020 30.12 849 25.07 18.7 65.6 24 -2 28.4
19:15 1020 30.12 849 25.07 18.5 65.3 25 -1.7 29
19:20 1020 30.12 849 25.07 18.4 65.2 26 -1.1 30
19:25 1020 30.12 849 25.07 18.4 65.2 25 -1.6 29.1
19:30 1020 30.12 849 25.07 18.4 65.1 24 -2.4 27.7
19:35 1020 30.12 849 25.07 18.3 65 24 -2.3 27.9
19:40 1020 30.12 849 25.07 18.3 64.9 24 -2.7 27.2
19:45 1020 30.12 849 25.07 18.2 64.8 25 -1.8 28.8
19:50 1020 30.12 849 25.07 18 64.4 26 -1.7 28.9
19:55 1020 30.12 849 25.07 17.8 64.1 28 -1 30.1
20:00 1020 30.12 849 25.07 17.7 63.8 27 -1.3 29.7
20:05 1020 30.12 849 25.07 17.6 63.6 27 -1.8 28.8
20:10 1020 30.12 849 25.07 17.4 63.2 32 0.7 33.3
20:15 1020 30.12 849 25.07 16.8 62.2 36 1.8 35.3
20:20 1020 30.12 849 25.07 16 60.8 39 2.2 35.9
20:25 1020 30.12 849 25.07 15.5 59.9 39 1.6 35
20:30 1020 30.12 849 25.07 15 59 41 1.8 35.3
20:35 1020 30.12 849 25.07 14.4 58 43 2.2 36
20:40 1020 30.12 849 25.07 14.1 57.4 44 2.2 36
20:45 1020 30.12 849 25.07 13.9 57 45 2.1 35.9
20:50 1020 30.12 849 25.07 13.7 56.6 45 2.1 35.8
20:55 1020 30.12 849 25.07 13.4 56.2 45 2 35.5
21:00 1020 30.12 849 25.07 13.1 55.7 46 2 35.5
21:05 1020 30.12 849 25.07 12.8 55.1 46 1.5 34.6
21:10 1020 30.12 849 25.07 12.7 54.8 45 1.2 34.2
21:15 1020 30.12 849 25.07 12.6 54.7 45 1 33.8
21:20 1020 30.12 849 25.07 12.4 54.3 46 1.1 33.9
21:25 1020 30.12 849 25.07 12.2 53.9 44 0.3 32.6
21:30 1020 30.12 849 25.07 12.1 53.9 44 0.4 32.7
21:35 1020 30.12 849 25.07 12.1 53.8 45 0.6 33.1
21:40 1020 30.12 849 25.07 12.1 53.7 45 0.6 33
21:45 1020 30.12 849 25.07 12.1 53.8 45 0.7 33.3
21:50 1020 30.12 849 25.07 11.9 53.4 46 0.7 33.3
21:55 1020 30.12 849 25.07 11.9 53.4 46 0.8 33.4
22:00 1020 30.12 849 25.07 11.9 53.4 46 0.8 33.4
22:05 1020 30.12 849 25.07 11.9 53.3 46 0.8 33.4
22:10 1020 30.12 849 25.07 11.8 53.2 47 0.8 33.4
22:15 1020 30.12 849 25.07 11.7 53 46 0.7 33.2
22:20 1020 30.12 849 25.07 11.4 52.6 48 0.8 33.5
22:25 1020 30.12 849 25.07 11.3 52.4 47 0.4 32.8
22:30 1020 30.12 849 25.07 11.4 52.4 46 0.3 32.6
22:35 1020 30.12 849 25.07 11.3 52.4 46 0.3 32.6
22:40 1020 30.12 849 25.07 11.3 52.3 46 0.2 32.3
22:45 1020 30.12 849 25.07 11.2 52.2 46 0.1 32.2
22:50 1020 30.12 849 25.07 11.2 52.1 47 0.3 32.6
22:55 1020 30.12 849 25.07 11 51.9 48 0.4 32.6
23:00 1020 30.12 849 25.07 10.8 51.5 48 0.3 32.5
23:05 1020 30.12 849 25.07 10.7 51.3 48 0.1 32.2
23:10 1020 30.12 849 25.07 10.7 51.2 48 0.3 32.5
23:15 1020 30.12 849 25.07 10.5 51 48 0.1 32.3
23:20 1020 30.12 849 25.07 10.5 50.9 48 0 32
23:25 1020 30.12 849 25.07 10.5 50.9 47 -0.3 31.4
23:30 1020 30.12 849 25.07 10.6 51.1 47 -0 31.9
23:35 1020 30.12 849 25.07 10.6 51 47 -0.3 31.4
23:40 1020 30.12 849 25.07 10.7 51.2 46 -0.4 31.2
23:45 1020 30.12 849 25.07 10.7 51.2 46 -0.4 31.3
23:50 1019 30.09 849 25.07 10.7 51.2 46 -0.5 31.1
23:55 1019 30.09 849 25.07 10.5 50.9 47 -0.4 31.3
24:00 1019 30.09 849 25.07 10.5 50.8 47 -0.4 31.3